Terminal Aerodrome Forecast
Issued by NWS Quad Cities IA IL

Home | Current Version | Previous Version | Text Only | Print | Product List | Glossary On
Versions: 1 2 3 4 5 6 7 8 9 10 11 12 13 14 15 16 17 18 19 20 21 22 23 24 25 26 27 28 29 30 31 32 33 34 35 36 37 38 39 40
839
FTUS43 KDVN 270431 AAC
TAFDBQ
TAF AMD
KDBQ 270431Z 2705/2724 01005KT 4SM -DZ BR OVC003
     FM270700 01005KT 2SM -DZ BR OVC002
     FM271500 04006KT 4SM BR OVC008
     FM272000 05005KT P6SM OVC012=

USA.gov is the U.S. government's official web portal to all federal, state and local government web resources and services.